Flight Track Log - Related Links

Times and Time Zones

All times are in EDT time to prevent confusion due to time zone crossing. See the DAL2028 flight status page for this flight to view local times or setup timezone preferences in your user account.

Time Position Orientation Groundspeed Altitude Reporting Facility
EDT Latitude Longitude Course Direction KTS MPH feet Rate Location/Type
Thu 04:11:17 PM 28.4000 -81.3000 350° North 167 192 900  Level Orlando TRACON
Thu 04:12:17 PM 28.3667 -81.3167 204° Southwest 199 229 3,500 2,850 Climbing Orlando TRACON
Thu 04:13:17 PM 28.3500 -81.3833 254° West 268 308 6,600 2,740 Climbing Orlando TRACON
Thu 04:14:00 PM 28.7817 -81.3474 353° North  Level FlightAware Approximate
Thu 04:15:00 PM 28.9039 -81.3641 350° North  Level FlightAware Approximate
Thu 04:15:10 PM 28.5006 -81.4350 343° North 298 343 11,400  Level Jacksonville Center
Thu 04:16:00 PM 29.0266 -81.3720 350° North  Level FlightAware Approximate
Thu 04:16:10 PM 28.6094 -81.4594 349° North 343 395 13,500  Level Jacksonville Center
Thu 04:17:10 PM 28.7183 -81.4864 348° North 380 437 16,200 2,550 Climbing Jacksonville Center
Thu 04:18:10 PM 28.8292 -81.5181 346° North 394 453 18,600 2,200 Climbing Jacksonville Center
Thu 04:19:10 PM 28.9442 -81.5497 346° North 409 471 20,600 1,750 Climbing Jacksonville Center
Thu 04:20:10 PM 29.0678 -81.5764 349° North 421 484 22,100 1,700 Climbing Jacksonville Center
Thu 04:21:10 PM 29.1892 -81.6128 345° North 435 501 24,000 1,750 Climbing Jacksonville Center
Thu 04:22:10 PM 29.2981 -81.6472 345° North 441 507 25,600 1,450 Climbing Jacksonville Center
Thu 04:23:10 PM 29.4275 -81.6575 356° North 453 521 26,900 1,250 Climbing Jacksonville Center
Thu 04:24:10 PM 29.5614 -81.6700 355° North 463 533 28,100 1,050 Climbing Jacksonville Center
Thu 04:25:10 PM 29.6992 -81.6875 354° North 480 552 29,000 450 Climbing Jacksonville Center
Thu 04:26:10 PM 29.8433 -81.7047 354° North 500 575 29,000 50 Level Jacksonville Center
Thu 04:27:10 PM 29.9836 -81.7222 354° North 506 582 29,100 1,100 Climbing Jacksonville Center
Thu 04:28:10 PM 30.1133 -81.7711 342° North 496 571 31,200 1,600 Climbing Jacksonville Center
Thu 04:29:10 PM 30.2369 -81.8300 338° Northwest 486 559 32,300 1,050 Climbing Jacksonville Center
Thu 04:30:10 PM 30.3689 -81.8767 343° North 480 552 33,300 1,150 Climbing Jacksonville Center
Thu 04:31:10 PM 30.5050 -81.9089 348° North 485 558 34,600 1,400 Climbing Jacksonville Center
Thu 04:32:10 PM 30.6514 -81.9508 346° North 496 571 36,100 1,200 Climbing Jacksonville Center
Thu 04:33:10 PM 30.7831 -81.9833 348° North 491 565 37,000 450 Climbing Jacksonville Center
Thu 04:34:10 PM 30.9211 -82.0064 352° North 491 565 37,000  Level Jacksonville Center
Thu 04:35:10 PM 31.0589 -82.0194 355° North 491 565 37,000  Level Jacksonville Center
Thu 04:36:10 PM 31.1947 -82.0256 358° North 485 558 37,000  Level Jacksonville Center
Thu 04:37:10 PM 31.3347 -82.0317 358° North 485 558 37,000 -50 Level Jacksonville Center
Thu 04:38:10 PM 31.4706 -82.0425 356° North 485 558 36,900  Descending Jacksonville Center
Thu 04:39:10 PM 31.6083 -82.0486 358° North 490 564 37,000 50 Climbing Jacksonville Center
Thu 04:40:10 PM 31.7294 -82.0522 359° North 490 564 37,000  Level Jacksonville Center
Thu 04:41:10 PM 31.8839 -82.0606 357° North 502 578 37,000  Level Jacksonville Center
Thu 04:42:48 PM 32.1128 -82.0722 358° North 519 597 37,000  Level Atlanta Center
Thu 04:43:48 PM 32.2550 -82.0789 358° North 514 592 37,000  Level Atlanta Center
Thu 04:44:48 PM 32.3928 -82.0881 357° North 503 579 37,000  Level Atlanta Center
Thu 04:45:48 PM 32.5350 -82.0972 357° North 503 579 37,000  Level Atlanta Center
Thu 04:46:48 PM 32.6706 -82.1042 358° North 493 567 37,000  Level Atlanta Center
Thu 04:47:48 PM 32.8106 -82.1136 357° North 493 567 37,000  Level Atlanta Center
Thu 04:48:48 PM 32.9506 -82.1178 359° North 499 574 37,000  Level Atlanta Center
Thu 04:49:48 PM 33.0886 -82.1272 357° North 499 574 37,000  Level Atlanta Center
Thu 04:50:48 PM 33.2264 -82.1342 358° North 499 574 37,000  Level Atlanta Center
Thu 04:51:48 PM 33.3622 -82.1411 358° North 499 574 37,000  Level Atlanta Center
Thu 04:52:48 PM 33.4997 -82.1356 North 493 567 37,000  Level Atlanta Center
Thu 04:53:48 PM 33.6369 -82.1050 11° North 493 567 37,000  Level Atlanta Center
Thu 04:54:48 PM 33.7619 -82.0772 10° North 504 580 37,000  Level Atlanta Center
Thu 04:55:48 PM 33.8992 -82.0492 10° North 504 580 37,000  Level Atlanta Center
Thu 04:56:48 PM 34.0386 -82.0183 10° North 504 580 37,000  Level Atlanta Center
Thu 04:57:48 PM 34.1736 -81.9900 10° North 504 580 37,000  Level Atlanta Center
Thu 04:58:48 PM 34.3131 -81.9589 10° North 504 580 37,000  Level Atlanta Center
Thu 04:59:48 PM 34.4503 -81.9278 11° North 504 580 37,000  Level Atlanta Center
Thu 05:00:48 PM 34.5875 -81.8942 11° North 504 580 37,000  Level Atlanta Center
Thu 05:01:48 PM 34.7247 -81.8703 North 498 573 37,000  Level Atlanta Center
Thu 05:02:48 PM 34.8639 -81.8364 11° North 505 581 37,000  Level Atlanta Center
Thu 05:03:48 PM 34.9989 -81.8000 12° North 505 581 37,000  Level Atlanta Center
Thu 05:04:48 PM 35.1403 -81.7681 10° North 505 581 37,000  Level Atlanta Center
Thu 05:05:48 PM 35.2897 -81.7361 10° North 504 580 37,000  Level Atlanta Center
Thu 05:06:48 PM 35.4311 -81.7042 10° North 504 580 37,000  Level Atlanta Center
Thu 05:07:48 PM 35.5703 -81.6694 11° North 504 580 37,000  Level Atlanta Center
Thu 05:08:48 PM 35.7114 -81.6372 11° North 504 580 37,000  Level Atlanta Center
Thu 05:09:48 PM 35.8506 -81.6022 12° North 504 580 37,000  Level Atlanta Center
Thu 05:10:48 PM 35.9750 -81.5731 11° North 509 586 37,000  Level Atlanta Center
Thu 05:11:48 PM 36.1142 -81.5378 12° North 509 586 37,000  Level Atlanta Center
Thu 05:12:48 PM 36.2553 -81.5000 12° North 504 580 37,000  Level Atlanta Center
Thu 05:13:48 PM 36.3942 -81.4672 11° North 504 580 37,000  Level Atlanta Center
Thu 05:14:48 PM 36.5333 -81.4344 11° North 504 580 37,000  Level Atlanta Center
Thu 05:16:19 PM 36.7372 -81.3825 12° North 505 581 37,000  Level Indianapolis Center
Thu 05:17:21 PM 36.8728 -81.3492 11° North 506 582 37,000  Level Indianapolis Center
Thu 05:18:23 PM 37.0364 -81.3097 11° North 506 582 37,000  Level Indianapolis Center
Thu 05:19:25 PM 37.1706 -81.2764 11° North 494 568 37,000  Level Indianapolis Center
Thu 05:20:27 PM 37.2986 -81.2458 11° North 492 566 37,000  Level Indianapolis Center
Thu 05:21:29 PM 37.4544 -81.2056 12° North 487 560 37,000  Level Indianapolis Center
Thu 05:22:31 PM 37.5828 -81.1736 11° North 481 554 37,000  Level Indianapolis Center
Thu 05:23:33 PM 37.7089 -81.1425 11° North 475 547 37,000  Level Indianapolis Center
Thu 05:24:35 PM 37.8325 -81.1417 360° North 462 532 37,000  Level Indianapolis Center
Thu 05:25:37 PM 37.9744 -81.1936 344° North 446 513 37,000  Level Indianapolis Center
Thu 05:26:39 PM 38.0908 -81.2394 343° North 440 506 37,000  Level Indianapolis Center
Thu 05:27:42 PM 38.1994 -81.3053 335° Northwest 433 498 37,000  Level Indianapolis Center
Thu 05:28:44 PM 38.3047 -81.3736 333° Northwest 425 489 37,000  Level Indianapolis Center
Thu 05:29:46 PM 38.4131 -81.4425 334° Northwest 432 497 37,000  Level Indianapolis Center
Thu 05:30:48 PM 38.5217 -81.5131 333° Northwest 435 501 37,000  Level Indianapolis Center
Thu 05:31:50 PM 38.6456 -81.5819 337° Northwest 443 510 37,000  Level Indianapolis Center
Thu 05:32:52 PM 38.7692 -81.6133 349° North 453 521 37,000  Level Indianapolis Center
Thu 05:33:54 PM 38.8992 -81.6367 352° North 465 535 37,000  Level Indianapolis Center
Thu 05:34:56 PM 39.0517 -81.6700 350° North 462 532 37,000  Level Indianapolis Center
Thu 05:35:58 PM 39.1808 -81.6947 352° North 466 536 37,000  Level Indianapolis Center
Thu 05:37:00 PM 39.3069 -81.7217 351° North 461 531 37,000  Level Indianapolis Center
Thu 05:38:02 PM 39.4342 -81.7481 351° North 461 531 37,000 -48 Level Indianapolis Center
Thu 05:39:04 PM 39.5617 -81.7750 351° North 462 532 36,900 -919 Descending Indianapolis Center
Thu 05:40:06 PM 39.6886 -81.8008 351° North 461 531 35,100 -1,500 Descending Indianapolis Center
Thu 05:41:08 PM 39.8222 -81.8300 350° North 444 511 33,800 -1,597 Descending Indianapolis Center
Thu 05:42:10 PM 39.9453 -81.8567 351° North 444 511 31,800 -1,839 Descending Indianapolis Center
Thu 05:43:12 PM 40.0686 -81.8814 351° North 443 510 30,000 -1,839 Descending Indianapolis Center
Thu 05:44:14 PM 40.2147 -81.9139 350° North 454 522 28,000 -1,403 Descending Indianapolis Center
Thu 05:45:16 PM 40.3400 -81.9394 351° North 461 531 27,100 -480 Descending Indianapolis Center
Thu 05:46:19 PM 40.4672 -81.9694 350° North 459 528 27,000 -48 Descending Indianapolis Center
Thu 05:47:20 PM 40.5942 -81.9953 351° North 458 527 27,000  Level Indianapolis Center
Thu 05:48:22 PM 40.7211 -82.0225 351° North 457 526 27,000  Level Indianapolis Center
Thu 05:49:21 PM 40.8539 -82.0517 351° North 451 519 27,000 -670 Level Cleveland Center
Thu 05:51:21 PM 41.0947 -82.1289 346° North 439 505 25,000 -1,000 Descending Cleveland Center
Thu 05:52:21 PM 41.1894 -82.2250 323° Northwest 419 482 24,000 -500 Descending Cleveland Center
Thu 05:53:21 PM 41.2797 -82.3211 321° Northwest 419 482 24,000 -950 Level Cleveland Center
Thu 05:54:21 PM 41.3700 -82.4119 323° Northwest 419 482 22,100 -2,600 Descending Cleveland Center
Thu 05:55:21 PM 41.4478 -82.4947 321° Northwest 407 468 18,800 -3,300 Descending Cleveland Center
Thu 05:56:21 PM 41.5297 -82.5775 323° Northwest 385 443 15,500 -2,550 Descending Cleveland Center
Thu 05:57:21 PM 41.6036 -82.6547 322° Northwest 355 409 13,700 -1,706 Descending Cleveland Center
Thu 05:58:10 PM 41.6711 -82.7236 323° Northwest 333 383 12,400 -873 Descending Cleveland Center
Thu 05:59:11 PM 41.7406 -82.7983 321° Northwest 280 322 12,100 -884 Descending Cleveland Center
Thu 06:00:19 PM 41.8056 -82.8786 317° Northwest 291 335 10,500 -1,385 Descending Cleveland Center
Thu 06:01:21 PM 41.8606 -82.9419 319° Northwest 291 335 9,100 -1,220 Descending Cleveland Center
Thu 06:02:22 PM 41.9342 -83.0144 324° Northwest 284 327 8,000 -1,050 Descending Cleveland Center
Thu 06:03:21 PM 41.9894 -83.0611 328° Northwest 285 328 7,000 -454 Descending Cleveland Center
Thu 06:04:21 PM 42.0403 -83.1219 318° Northwest 263 303 7,100  Climbing Cleveland Center
Thu 06:05:21 PM 42.0700 -83.1958 298° West 242 278 7,000 -100 Descending Cleveland Center
Thu 06:06:21 PM 42.0553 -83.2903 258° West 218 251 6,900 -677 Descending Cleveland Center
Thu 06:07:34 PM 41.9953 -83.3547 219° Southwest 238 274 5,500 -943 Descending Cleveland Center
Thu 06:08:41 PM 41.9356 -83.4081 214° Southwest 214 246 4,700 -732 Descending Cleveland Center
Thu 06:09:37 PM 41.8886 -83.4478 212° Southwest 208 239 4,000 -341 Descending Cleveland Center
Thu 06:10:44 PM 41.8786 -83.5200 259° West 192 221 4,000 49 Level Cleveland Center
Thu 06:11:39 PM 41.9153 -83.5522 327° Northwest 188 216 4,100 51 Climbing Cleveland Center
Thu 06:12:41 PM 41.9619 -83.5236 25° Northeast 185 213 4,100  Level Cleveland Center
Thu 06:13:42 PM 42.0086 -83.4922 27° Northeast 182 209 4,100 -98 Level Cleveland Center
Thu 06:14:43 PM 42.0511 -83.4550 33° Northeast 186 214 3,900 -197 Descending Cleveland Center

Login

Don't have an account? Register now (free) for customized features, flight alerts, and more!